Time;durP1;ratioP1;P1;durP2;ratioP2;P2;SDS_P1;SDS_P2;PMS_P1;PMS_P2;Temp;Humidity;BMP_temperature;BMP_pressure;BME280_temperature;BME280_humidity;BME280_pressure;Samples;Min_cycle;Max_cycle;Signal;HPM_P1;HPM_P2
2023/06/02 00:00:41;;;;;;;0.05;0.05;;;11.90;99.90;;;;;;5007693;28;20053;-66
2023/06/02 00:03:08;;;;;;;0.10;0.10;;;11.90;99.90;;;;;;5005440;28;20524;-66
2023/06/02 00:05:34;;;;;;;0.00;0.00;;;11.80;99.90;;;;;;5003006;28;20042;-66
2023/06/02 00:08:01;;;;;;;0.00;0.00;;;11.90;99.90;;;;;;5012203;28;20096;-66
2023/06/02 00:10:26;;;;;;;0.00;0.00;;;11.90;99.90;;;;;;5003141;28;20046;-66
2023/06/02 00:12:52;;;;;;;0.50;0.50;;;11.90;99.90;;;;;;5011261;28;20389;-66
2023/06/02 00:15:17;;;;;;;0.20;0.20;;;11.90;99.90;;;;;;5012017;28;20116;-66
2023/06/02 00:17:43;;;;;;;0.00;0.00;;;11.90;99.90;;;;;;4993724;28;20053;-66
2023/06/02 00:20:10;;;;;;;0.03;0.03;;;11.90;99.90;;;;;;4997994;28;20030;-66
2023/06/02 00:22:38;;;;;;;0.08;0.08;;;11.90;99.90;;;;;;5004456;28;20076;-66
2023/06/02 00:25:04;;;;;;;0.10;0.10;;;11.90;99.90;;;;;;5011149;28;20138;-66
2023/06/02 00:27:30;;;;;;;0.00;0.00;;;11.90;99.90;;;;;;5010309;28;20042;-66
2023/06/02 00:29:55;;;;;;;0.10;0.10;;;11.90;99.90;;;;;;4995857;28;20060;-66
2023/06/02 00:32:21;;;;;;;0.10;0.10;;;11.90;99.90;;;;;;5004360;28;20734;-66
2023/06/02 00:34:47;;;;;;;0.00;0.00;;;11.90;99.90;;;;;;5006048;28;20114;-66
2023/06/02 00:37:12;;;;;;;0.00;0.00;;;11.90;99.90;;;;;;4998771;28;20042;-66
2023/06/02 00:39:38;;;;;;;0.10;0.10;;;11.90;99.90;;;;;;5010688;28;20444;-66
2023/06/02 00:42:04;;;;;;;1.15;0.75;;;11.90;99.90;;;;;;5011971;28;20486;-66
2023/06/02 00:44:30;;;;;;;0.10;0.10;;;11.90;99.90;;;;;;5005454;28;20037;-66
2023/06/02 00:46:56;;;;;;;0.00;0.00;;;11.90;99.90;;;;;;5003068;28;20108;-66
2023/06/02 00:49:22;;;;;;;0.00;0.00;;;11.90;99.90;;;;;;5015278;28;20069;-66
2023/06/02 00:51:49;;;;;;;0.22;0.22;;;11.90;99.90;;;;;;5002207;28;20153;-66
2023/06/02 00:54:16;;;;;;;0.65;0.65;;;11.90;99.90;;;;;;5036588;28;20178;-66
2023/06/02 00:56:42;;;;;;;0.88;0.75;;;11.90;99.90;;;;;;5003316;28;20077;-66
2023/06/02 00:59:08;;;;;;;17.38;1.10;;;11.90;99.90;;;;;;5014163;28;20481;-67
2023/06/02 01:01:35;;;;;;;0.15;0.15;;;11.90;99.90;;;;;;5014593;28;20077;-67
2023/06/02 01:04:01;;;;;;;0.00;0.00;;;11.90;99.90;;;;;;5000209;28;20034;-67
2023/06/02 01:06:34;;;;;;;0.38;0.38;;;11.90;99.90;;;;;;5010596;28;20103;-66
2023/06/02 01:09:06;;;;;;;0.20;0.20;;;11.90;99.90;;;;;;5007464;28;20070;-66
2023/06/02 01:11:32;;;;;;;1.25;1.00;;;11.80;99.90;;;;;;5013279;28;20054;-66
2023/06/02 01:13:59;;;;;;;0.10;0.10;;;11.90;99.90;;;;;;5005079;28;20541;-66
2023/06/02 01:16:27;;;;;;;0.60;0.50;;;11.80;99.90;;;;;;5012996;28;20153;-66
2023/06/02 01:18:52;;;;;;;0.25;0.25;;;11.90;99.90;;;;;;5043243;28;20049;-66
2023/06/02 01:21:22;;;;;;;0.00;0.00;;;11.80;99.90;;;;;;4995029;28;20041;-66
2023/06/02 01:23:57;;;;;;;0.13;0.13;;;11.80;99.90;;;;;;5011871;28;20030;-66
2023/06/02 01:26:28;;;;;;;1.65;0.88;;;11.80;99.90;;;;;;5013664;28;20490;-66
2023/06/02 01:28:54;;;;;;;0.10;0.10;;;11.90;99.90;;;;;;5007615;28;20401;-66
2023/06/02 01:31:27;;;;;;;0.10;0.10;;;11.80;99.90;;;;;;5014251;28;20042;-66
2023/06/02 01:34:06;;;;;;;0.00;0.00;;;11.80;99.90;;;;;;5014504;28;20038;-66
2023/06/02 01:36:36;;;;;;;0.10;0.10;;;11.80;99.90;;;;;;4999193;28;20122;-66
2023/06/02 01:39:03;;;;;;;0.20;0.20;;;11.80;99.90;;;;;;5013224;28;20038;-66
2023/06/02 01:41:32;;;;;;;0.20;0.20;;;11.80;99.90;;;;;;5013132;28;20845;-66
2023/06/02 01:44:00;;;;;;;3.50;0.55;;;11.80;99.90;;;;;;5011754;28;20133;-66
2023/06/02 01:46:26;;;;;;;1.05;1.05;;;11.80;99.90;;;;;;5001641;28;20069;-66
2023/06/02 01:48:53;;;;;;;0.75;0.75;;;11.80;99.90;;;;;;5002740;28;20045;-66
2023/06/02 01:51:19;;;;;;;0.15;0.15;;;11.80;99.90;;;;;;5013375;28;20046;-66
2023/06/02 01:53:44;;;;;;;0.10;0.10;;;11.80;99.90;;;;;;5002013;28;20030;-66
2023/06/02 01:56:10;;;;;;;0.20;0.20;;;11.80;99.90;;;;;;5009339;28;20096;-66
2023/06/02 01:58:36;;;;;;;0.10;0.10;;;11.80;99.90;;;;;;5012806;28;20050;-66
2023/06/02 02:01:02;;;;;;;0.63;0.63;;;11.80;99.90;;;;;;5007659;28;20113;-66
2023/06/02 02:03:29;;;;;;;0.20;0.20;;;11.70;99.90;;;;;;4994842;28;20118;-66
2023/06/02 02:05:55;;;;;;;0.00;0.00;;;11.70;99.90;;;;;;5014152;28;20052;-66
2023/06/02 02:08:21;;;;;;;0.10;0.10;;;11.70;99.90;;;;;;5014266;28;20128;-66
2023/06/02 02:10:46;;;;;;;1.65;0.95;;;11.70;99.90;;;;;;5006509;28;20182;-66
2023/06/02 02:13:12;;;;;;;0.60;0.55;;;11.70;99.90;;;;;;5005596;28;20608;-67
2023/06/02 02:15:38;;;;;;;0.30;0.30;;;11.70;99.90;;;;;;5014158;28;20049;-66
2023/06/02 02:18:04;;;;;;;3.92;1.15;;;11.60;99.90;;;;;;5013049;28;20069;-66
2023/06/02 02:20:30;;;;;;;0.10;0.10;;;11.60;99.90;;;;;;5007383;28;20496;-66
2023/06/02 02:22:55;;;;;;;0.63;0.63;;;11.60;99.90;;;;;;5010321;28;20069;-66
2023/06/02 02:25:21;;;;;;;1.38;1.27;;;11.50;99.90;;;;;;5009099;28;20042;-66
2023/06/02 02:27:46;;;;;;;0.10;0.10;;;11.50;99.90;;;;;;4996368;28;20089;-66
2023/06/02 02:30:12;;;;;;;0.00;0.00;;;11.50;99.90;;;;;;5013083;28;20050;-66
2023/06/02 02:32:44;;;;;;;0.00;0.00;;;11.50;99.90;;;;;;5012788;28;20386;-66
2023/06/02 02:35:10;;;;;;;0.00;0.00;;;11.40;99.90;;;;;;5002531;28;20061;-66
2023/06/02 02:37:36;;;;;;;0.25;0.25;;;11.40;99.90;;;;;;5027796;28;20042;-66
2023/06/02 02:40:03;;;;;;;0.00;0.00;;;11.40;99.90;;;;;;5013154;28;20038;-66
2023/06/02 02:42:29;;;;;;;0.00;0.00;;;11.40;99.90;;;;;;4998387;28;20057;-66
2023/06/02 02:44:54;;;;;;;0.10;0.10;;;11.40;99.90;;;;;;5005026;28;20050;-66
2023/06/02 02:47:20;;;;;;;0.20;0.20;;;11.40;99.90;;;;;;5001490;28;20045;-66
2023/06/02 02:49:46;;;;;;;0.50;0.32;;;11.40;99.90;;;;;;5004669;28;20065;-66
2023/06/02 02:52:12;;;;;;;0.00;0.00;;;11.40;99.90;;;;;;4997371;28;20050;-66
2023/06/02 02:54:38;;;;;;;0.13;0.13;;;11.40;99.90;;;;;;5006303;28;20060;-66
2023/06/02 02:57:07;;;;;;;3.20;0.40;;;11.40;99.90;;;;;;5013017;28;20042;-66
2023/06/02 02:59:36;;;;;;;0.10;0.10;;;11.50;99.90;;;;;;5014396;28;20054;-66
2023/06/02 03:02:03;;;;;;;0.20;0.20;;;11.50;99.90;;;;;;5007654;28;20052;-66
2023/06/02 03:04:31;;;;;;;0.00;0.00;;;11.50;99.90;;;;;;5012656;28;20053;-66
2023/06/02 03:06:57;;;;;;;1.55;1.20;;;11.50;99.90;;;;;;5002869;28;20461;-66
2023/06/02 03:09:22;;;;;;;0.25;0.25;;;11.50;99.90;;;;;;5001437;28;20076;-66
2023/06/02 03:11:48;;;;;;;0.00;0.00;;;11.50;99.90;;;;;;5012284;28;20049;-66
2023/06/02 03:14:14;;;;;;;0.82;0.82;;;11.50;99.90;;;;;;5000335;28;20092;-66
2023/06/02 03:16:44;;;;;;;4.38;0.60;;;11.50;99.90;;;;;;5011419;28;20041;-66
2023/06/02 03:19:13;;;;;;;0.10;0.10;;;11.50;99.90;;;;;;5012736;28;20030;-66
2023/06/02 03:21:41;;;;;;;2.53;0.45;;;11.50;99.90;;;;;;5001434;28;20477;-67
2023/06/02 03:24:18;;;;;;;0.00;0.00;;;11.50;99.90;;;;;;5000005;28;20103;-66
2023/06/02 03:26:44;;;;;;;0.10;0.10;;;11.50;99.90;;;;;;5000672;28;20049;-66
2023/06/02 03:29:10;;;;;;;0.00;0.00;;;11.50;99.90;;;;;;5011397;28;20111;-66
2023/06/02 03:31:36;;;;;;;0.55;0.55;;;11.50;99.90;;;;;;5012435;28;20042;-66
2023/06/02 03:34:03;;;;;;;0.10;0.10;;;11.50;99.90;;;;;;5001102;28;20885;-66
2023/06/02 03:36:29;;;;;;;0.00;0.00;;;11.50;99.90;;;;;;5027175;28;20092;-66
2023/06/02 03:38:55;;;;;;;0.10;0.10;;;11.60;99.90;;;;;;5008650;28;20046;-66
2023/06/02 03:41:21;;;;;;;0.43;0.43;;;11.50;99.90;;;;;;5001573;28;20050;-66
2023/06/02 03:43:47;;;;;;;0.10;0.10;;;11.60;99.90;;;;;;5011960;28;20041;-66
2023/06/02 03:46:13;;;;;;;0.20;0.20;;;11.50;99.90;;;;;;5011942;28;20394;-66
2023/06/02 03:48:38;;;;;;;0.10;0.10;;;11.50;99.90;;;;;;5007217;28;20050;-66
2023/06/02 03:51:04;;;;;;;0.00;0.00;;;11.60;99.90;;;;;;4994989;28;20050;-66
2023/06/02 03:53:30;;;;;;;0.00;0.00;;;11.60;99.90;;;;;;5010830;28;20042;-66
2023/06/02 03:55:56;;;;;;;0.13;0.13;;;11.60;99.90;;;;;;5011447;28;20045;-66
2023/06/02 03:58:23;;;;;;;0.10;0.10;;;11.60;99.90;;;;;;4998320;28;20038;-66
2023/06/02 04:00:49;;;;;;;0.00;0.00;;;11.60;99.90;;;;;;5012088;28;20045;-66
2023/06/02 04:03:15;;;;;;;0.43;0.43;;;11.70;99.90;;;;;;5011306;28;20050;-66
2023/06/02 04:05:41;;;;;;;0.10;0.10;;;11.70;99.90;;;;;;5001558;28;20449;-66
2023/06/02 04:08:07;;;;;;;0.03;0.03;;;11.70;99.90;;;;;;5002357;28;20037;-66
2023/06/02 04:10:33;;;;;;;0.63;0.63;;;11.70;99.90;;;;;;5001239;28;20096;-66
2023/06/02 04:12:58;;;;;;;0.10;0.10;;;11.70;99.90;;;;;;5010120;28;20057;-66
2023/06/02 04:15:24;;;;;;;0.32;0.30;;;11.70;99.90;;;;;;5011653;28;20041;-66
2023/06/02 04:17:50;;;;;;;0.10;0.10;;;11.70;99.90;;;;;;5003740;28;20043;-66
2023/06/02 04:20:15;;;;;;;0.10;0.10;;;11.70;99.90;;;;;;5008962;28;20113;-66
2023/06/02 04:22:41;;;;;;;2.78;1.15;;;11.70;99.90;;;;;;5015509;28;20061;-66
2023/06/02 04:25:07;;;;;;;3.20;1.65;;;11.70;99.90;;;;;;5015014;28;20042;-66
2023/06/02 04:27:33;;;;;;;0.10;0.10;;;11.70;99.90;;;;;;5001369;28;20133;-66
2023/06/02 04:29:58;;;;;;;0.13;0.13;;;11.70;99.90;;;;;;5027773;28;20128;-66
2023/06/02 04:32:24;;;;;;;0.10;0.10;;;11.70;99.90;;;;;;5000489;28;20453;-66
2023/06/02 04:34:50;;;;;;;0.00;0.00;;;11.80;99.90;;;;;;5011146;28;20061;-66
2023/06/02 04:37:16;;;;;;;0.00;0.00;;;11.80;99.90;;;;;;4993798;28;20129;-66
2023/06/02 04:39:46;;;;;;;0.10;0.10;;;11.80;99.90;;;;;;5007940;28;20137;-66
2023/06/02 04:42:13;;;;;;;0.30;0.30;;;11.80;99.90;;;;;;5015323;28;20042;-66
2023/06/02 04:44:39;;;;;;;0.00;0.00;;;11.80;99.90;;;;;;5001847;28;20041;-66
2023/06/02 04:47:06;;;;;;;0.45;0.45;;;11.80;99.90;;;;;;5011881;28;20117;-66
2023/06/02 04:49:31;;;;;;;0.20;0.20;;;11.90;99.90;;;;;;5013874;28;20084;-66
2023/06/02 04:51:57;;;;;;;0.50;0.50;;;11.90;99.90;;;;;;5005098;28;20062;-66
2023/06/02 04:54:23;;;;;;;0.45;0.45;;;11.90;99.90;;;;;;5012647;28;20050;-66
2023/06/02 04:56:49;;;;;;;0.95;0.57;;;12.00;99.90;;;;;;5014028;28;20125;-66
2023/06/02 04:59:14;;;;;;;0.32;0.32;;;12.00;99.90;;;;;;5012389;28;20137;-66
2023/06/02 05:01:40;;;;;;;1.55;0.95;;;12.00;99.90;;;;;;5000783;28;20055;-66
2023/06/02 05:04:06;;;;;;;0.10;0.10;;;12.00;99.90;;;;;;5015043;28;20117;-66
2023/06/02 05:06:31;;;;;;;0.08;0.08;;;12.00;99.90;;;;;;5014087;28;20513;-66
2023/06/02 05:08:57;;;;;;;0.57;0.55;;;12.10;99.90;;;;;;5008581;28;20041;-66
2023/06/02 05:11:23;;;;;;;0.00;0.00;;;12.10;99.90;;;;;;5010867;28;20042;-66
2023/06/02 05:13:48;;;;;;;0.20;0.20;;;12.10;99.90;;;;;;5014161;28;20124;-66
2023/06/02 05:16:14;;;;;;;0.98;0.63;;;12.10;99.90;;;;;;5004542;28;20177;-66
2023/06/02 05:18:40;;;;;;;0.30;0.30;;;12.20;99.90;;;;;;5005778;28;20034;-66
2023/06/02 05:21:05;;;;;;;0.10;0.10;;;12.20;99.90;;;;;;5013627;28;20046;-66
2023/06/02 05:23:31;;;;;;;0.00;0.00;;;12.20;99.90;;;;;;5007351;28;20038;-66
2023/06/02 05:25:56;;;;;;;0.00;0.00;;;12.20;99.90;;;;;;5010410;28;20383;-67
2023/06/02 05:28:22;;;;;;;0.20;0.20;;;12.20;99.90;;;;;;5011416;28;20145;-66
2023/06/02 05:30:47;;;;;;;0.15;0.15;;;12.30;99.90;;;;;;5009864;28;20749;-66
2023/06/02 05:33:13;;;;;;;0.10;0.10;;;12.30;99.90;;;;;;5003430;28;20121;-66
2023/06/02 05:35:39;;;;;;;0.32;0.32;;;12.30;99.90;;;;;;5013572;28;20037;-66
2023/06/02 05:38:05;;;;;;;0.20;0.20;;;12.30;99.90;;;;;;5014035;28;20046;-66
2023/06/02 05:40:30;;;;;;;0.20;0.20;;;12.30;99.90;;;;;;5010148;28;20045;-66
2023/06/02 05:42:56;;;;;;;0.30;0.30;;;12.30;99.90;;;;;;5008585;28;20050;-66
2023/06/02 05:45:21;;;;;;;0.10;0.10;;;12.40;99.90;;;;;;5014272;28;20045;-66
2023/06/02 05:47:48;;;;;;;0.35;0.35;;;12.30;99.90;;;;;;5012245;28;20045;-66
2023/06/02 05:50:14;;;;;;;0.00;0.00;;;12.40;99.90;;;;;;5031694;28;20053;-66
2023/06/02 05:52:40;;;;;;;0.10;0.10;;;12.40;99.90;;;;;;5023841;28;20136;-66
2023/06/02 05:55:06;;;;;;;0.00;0.00;;;12.40;99.90;;;;;;5009240;28;20133;-66
2023/06/02 05:57:31;;;;;;;0.90;0.75;;;12.40;99.90;;;;;;5014410;28;20050;-66
2023/06/02 05:59:57;;;;;;;7.03;1.17;;;12.40;99.90;;;;;;5012949;28;20070;-66
2023/06/02 06:02:22;;;;;;;0.10;0.10;;;12.40;99.90;;;;;;4999247;28;20062;-66
2023/06/02 06:04:48;;;;;;;0.35;0.35;;;12.50;99.90;;;;;;5000661;28;20100;-66
2023/06/02 06:07:13;;;;;;;0.08;0.08;;;12.40;99.90;;;;;;5013986;28;20132;-66
2023/06/02 06:09:39;;;;;;;0.20;0.20;;;12.50;99.90;;;;;;5001633;28;20042;-66
2023/06/02 06:12:05;;;;;;;0.10;0.10;;;12.50;99.90;;;;;;5009586;28;20064;-66
2023/06/02 06:14:31;;;;;;;0.10;0.10;;;12.50;99.90;;;;;;5014106;28;20152;-66
2023/06/02 06:16:56;;;;;;;0.10;0.10;;;12.50;99.90;;;;;;5011808;28;20540;-66
2023/06/02 06:19:22;;;;;;;0.10;0.10;;;12.50;99.90;;;;;;4999014;28;20045;-66
2023/06/02 06:21:47;;;;;;;0.10;0.10;;;12.60;99.90;;;;;;4995259;28;20050;-66
2023/06/02 06:24:13;;;;;;;0.32;0.28;;;12.60;99.90;;;;;;5004389;28;20040;-66
2023/06/02 06:26:39;;;;;;;2.08;1.02;;;12.60;99.90;;;;;;5013255;28;20045;-66
2023/06/02 06:29:05;;;;;;;0.00;0.00;;;12.60;99.90;;;;;;5002677;28;20097;-66
2023/06/02 06:31:32;;;;;;;0.15;0.15;;;12.70;99.90;;;;;;5010633;28;20481;-66
2023/06/02 06:33:58;;;;;;;0.10;0.10;;;12.70;99.90;;;;;;5013472;28;20363;-66
2023/06/02 06:36:23;;;;;;;0.10;0.10;;;12.80;99.90;;;;;;5013211;28;20049;-66
2023/06/02 06:38:49;;;;;;;0.00;0.00;;;12.90;99.90;;;;;;4999700;28;20044;-66
2023/06/02 06:41:15;;;;;;;0.10;0.10;;;12.90;99.90;;;;;;5010967;28;20046;-66
2023/06/02 06:43:40;;;;;;;0.00;0.00;;;13.00;99.90;;;;;;5012515;28;20198;-66
2023/06/02 06:46:06;;;;;;;9.65;1.65;;;12.90;99.90;;;;;;4998401;28;20045;-66
2023/06/02 06:48:31;;;;;;;0.68;0.47;;;13.00;99.90;;;;;;5012680;28;20088;-66
2023/06/02 06:50:57;;;;;;;0.68;0.68;;;13.00;99.90;;;;;;4999056;28;20820;-66
2023/06/02 06:53:22;;;;;;;0.10;0.10;;;13.10;99.90;;;;;;5004168;28;20057;-66
2023/06/02 06:55:48;;;;;;;0.00;0.00;;;13.10;99.90;;;;;;5006982;28;20051;-66
2023/06/02 06:58:13;;;;;;;0.10;0.10;;;13.10;99.90;;;;;;5007598;28;20041;-66
2023/06/02 07:00:39;;;;;;;2.67;1.25;;;13.20;99.90;;;;;;5027797;28;20054;-66
2023/06/02 07:03:05;;;;;;;0.05;0.05;;;13.20;99.90;;;;;;4996286;28;20108;-66
2023/06/02 07:05:30;;;;;;;0.10;0.10;;;13.30;99.90;;;;;;5000934;28;20046;-66
2023/06/02 07:07:56;;;;;;;0.10;0.10;;;13.40;99.90;;;;;;5007387;28;20112;-66
2023/06/02 07:10:22;;;;;;;0.20;0.20;;;13.40;99.90;;;;;;5039951;28;20136;-66
2023/06/02 07:12:48;;;;;;;0.10;0.10;;;13.40;99.90;;;;;;5004335;28;20044;-66
2023/06/02 07:15:14;;;;;;;0.10;0.10;;;13.40;99.90;;;;;;5001853;28;20046;-66
2023/06/02 07:17:41;;;;;;;0.75;0.75;;;13.50;99.90;;;;;;5001897;28;20483;-66
2023/06/02 07:20:09;;;;;;;0.63;0.30;;;13.60;99.90;;;;;;5006578;28;20041;-66
2023/06/02 07:22:35;;;;;;;0.08;0.08;;;13.60;99.90;;;;;;5004107;28;20042;-66
2023/06/02 07:25:00;;;;;;;1.40;1.10;;;13.70;99.90;;;;;;5003270;28;20111;-66
2023/06/02 07:27:26;;;;;;;0.03;0.03;;;13.70;99.90;;;;;;5010304;28;20072;-66
2023/06/02 07:29:52;;;;;;;0.08;0.08;;;13.80;99.90;;;;;;5012139;28;20429;-66
2023/06/02 07:32:18;;;;;;;0.63;0.63;;;13.80;99.90;;;;;;5000109;28;20096;-66
2023/06/02 07:34:44;;;;;;;0.00;0.00;;;13.80;99.90;;;;;;4996631;28;20038;-66
2023/06/02 07:37:10;;;;;;;0.00;0.00;;;13.80;99.90;;;;;;5008482;28;20046;-66
2023/06/02 07:39:35;;;;;;;0.10;0.10;;;14.00;99.90;;;;;;5011338;28;20077;-66
2023/06/02 07:42:01;;;;;;;0.98;0.98;;;14.00;99.90;;;;;;5003380;28;20482;-66
2023/06/02 07:44:26;;;;;;;0.20;0.20;;;14.00;99.90;;;;;;4999083;28;20065;-66
2023/06/02 07:46:52;;;;;;;0.28;0.28;;;14.10;99.90;;;;;;5024859;28;20050;-66
2023/06/02 07:49:18;;;;;;;0.08;0.08;;;14.10;99.90;;;;;;5003510;28;20109;-66
2023/06/02 07:51:44;;;;;;;0.22;0.22;;;14.10;99.90;;;;;;5001387;28;20129;-66
2023/06/02 07:54:09;;;;;;;0.10;0.10;;;14.30;99.90;;;;;;4998941;28;20053;-66
2023/06/02 07:56:35;;;;;;;0.03;0.03;;;14.40;99.90;;;;;;5001451;28;20042;-66
2023/06/02 07:59:01;;;;;;;0.00;0.00;;;14.50;99.90;;;;;;5011887;28;20054;-66
2023/06/02 08:01:27;;;;;;;0.28;0.28;;;14.50;99.90;;;;;;5004290;28;20038;-67
2023/06/02 08:03:52;;;;;;;0.50;0.40;;;14.60;99.90;;;;;;5002131;28;20049;-66
2023/06/02 08:06:18;;;;;;;0.10;0.10;;;14.50;99.90;;;;;;5011693;28;20049;-66
2023/06/02 08:08:45;;;;;;;0.00;0.00;;;14.60;99.90;;;;;;5006664;28;20054;-66
2023/06/02 08:11:11;;;;;;;0.75;0.52;;;14.70;99.90;;;;;;4991233;28;20061;-66
2023/06/02 08:13:36;;;;;;;4.85;2.05;;;14.70;99.90;;;;;;5011176;28;20038;-66
2023/06/02 08:16:02;;;;;;;0.20;0.20;;;14.60;99.90;;;;;;5002927;28;20038;-66
2023/06/02 08:18:28;;;;;;;0.00;0.00;;;14.70;99.90;;;;;;4998816;28;20496;-66
2023/06/02 08:20:53;;;;;;;0.40;0.40;;;14.80;99.90;;;;;;5003228;28;20502;-66
2023/06/02 08:23:19;;;;;;;0.63;0.63;;;14.90;99.90;;;;;;5000808;28;20401;-67
2023/06/02 08:25:45;;;;;;;0.40;0.40;;;14.90;99.90;;;;;;5011959;28;20053;-66
2023/06/02 08:28:13;;;;;;;0.55;0.55;;;15.00;99.90;;;;;;4994555;28;20494;-66
2023/06/02 08:30:41;;;;;;;0.45;0.45;;;15.10;99.90;;;;;;5005930;28;20048;-66
2023/06/02 08:33:09;;;;;;;0.10;0.10;;;15.30;99.90;;;;;;4996580;28;20498;-66
2023/06/02 08:35:38;;;;;;;0.22;0.22;;;15.40;99.90;;;;;;5008175;28;20541;-66
2023/06/02 08:38:07;;;;;;;0.00;0.00;;;15.50;99.90;;;;;;5000633;28;20410;-66
2023/06/02 08:40:39;;;;;;;0.00;0.00;;;15.60;99.90;;;;;;4996390;28;20049;-66
2023/06/02 08:43:09;;;;;;;1.48;1.15;;;15.70;99.90;;;;;;4996219;28;20046;-66
2023/06/02 08:45:35;;;;;;;0.00;0.00;;;15.80;99.90;;;;;;5004731;28;20042;-67
2023/06/02 08:48:05;;;;;;;0.00;0.00;;;15.70;99.90;;;;;;4994935;28;20082;-66
2023/06/02 08:50:34;;;;;;;5.68;0.85;;;15.80;99.90;;;;;;5015869;28;20107;-66
2023/06/02 08:53:03;;;;;;;0.28;0.28;;;15.70;99.90;;;;;;4999646;28;20074;-66
2023/06/02 08:55:29;;;;;;;0.20;0.20;;;15.80;99.90;;;;;;5009870;28;20116;-67
2023/06/02 08:57:55;;;;;;;0.38;0.38;;;15.70;99.90;;;;;;5000481;28;20573;-67
2023/06/02 09:00:21;;;;;;;0.03;0.03;;;15.70;99.90;;;;;;5004877;28;20049;-66
2023/06/02 09:02:48;;;;;;;1.00;0.50;;;15.70;99.90;;;;;;5002854;28;20488;-66
2023/06/02 09:05:16;;;;;;;5.35;0.73;;;15.60;99.90;;;;;;5003731;28;20038;-67
2023/06/02 09:07:44;;;;;;;0.30;0.30;;;15.50;99.90;;;;;;5012757;28;20057;-66
2023/06/02 09:10:10;;;;;;;0.80;0.63;;;15.50;99.90;;;;;;5002344;28;20045;-66
2023/06/02 09:12:48;;;;;;;0.10;0.10;;;15.60;99.90;;;;;;5013949;28;20092;-66
2023/06/02 09:15:14;;;;;;;0.03;0.03;;;15.60;99.90;;;;;;5002385;28;20074;-66
2023/06/02 09:17:40;;;;;;;0.20;0.20;;;15.70;99.90;;;;;;5001373;28;20034;-66
2023/06/02 09:20:12;;;;;;;2.05;1.85;;;16.00;99.90;;;;;;5007624;28;20045;-66
2023/06/02 09:22:58;;;;;;;0.10;0.10;;;16.10;99.90;;;;;;5006643;28;20045;-66
2023/06/02 09:25:29;;;;;;;0.10;0.10;;;16.10;99.90;;;;;;5007866;28;20046;-67
2023/06/02 09:27:56;;;;;;;0.00;0.00;;;16.10;99.90;;;;;;5013984;28;20883;-67
2023/06/02 09:30:22;;;;;;;0.10;0.10;;;16.30;99.90;;;;;;5005475;28;20050;-67
2023/06/02 09:32:59;;;;;;;0.00;0.00;;;16.30;99.90;;;;;;5035831;28;20092;-66
2023/06/02 09:35:36;;;;;;;0.05;0.05;;;16.40;99.90;;;;;;5007037;28;20393;-66
2023/06/02 09:38:05;;;;;;;0.55;0.55;;;16.50;99.90;;;;;;5008412;28;20090;-67
2023/06/02 09:40:34;;;;;;;0.00;0.00;;;16.70;99.90;;;;;;5005328;28;20405;-67
2023/06/02 09:43:05;;;;;;;0.03;0.03;;;17.10;99.90;;;;;;5013937;28;20489;-67
2023/06/02 09:45:31;;;;;;;0.10;0.10;;;17.50;99.90;;;;;;5000175;28;20049;-67
2023/06/02 09:47:58;;;;;;;0.10;0.10;;;18.00;99.90;;;;;;5005264;28;20100;-67
2023/06/02 09:50:31;;;;;;;0.08;0.08;;;18.50;99.90;;;;;;5013963;28;20543;-67
2023/06/02 09:53:07;;;;;;;0.00;0.00;;;18.80;99.90;;;;;;5000634;28;20518;-67
2023/06/02 09:55:36;;;;;;;0.73;0.25;;;19.10;99.90;;;;;;5000766;28;20085;-67
2023/06/02 09:58:03;;;;;;;0.35;0.35;;;19.20;99.90;;;;;;5005621;28;20050;-67
2023/06/02 10:00:29;;;;;;;0.10;0.10;;;19.40;99.90;;;;;;5013847;28;20037;-66
2023/06/02 10:02:55;;;;;;;1.98;1.23;;;19.50;99.90;;;;;;5005866;28;20046;-67
2023/06/02 10:05:22;;;;;;;0.57;0.57;;;19.50;99.90;;;;;;5007983;28;20049;-67
2023/06/02 10:08:26;;;;;;;0.08;0.08;;;19.60;99.90;;;;;;5012918;28;20042;-67
2023/06/02 10:11:18;;;;;;;0.00;0.00;;;19.60;99.90;;;;;;5004328;28;20518;-67
2023/06/02 10:14:06;;;;;;;0.00;0.00;;;19.70;99.90;;;;;;5011667;28;20120;-67
2023/06/02 10:16:31;;;;;;;0.10;0.10;;;19.90;99.90;;;;;;5012492;28;20050;-67
2023/06/02 10:19:38;;;;;;;0.22;0.22;;;20.00;99.90;;;;;;5000106;28;20061;-67
2023/06/02 10:22:29;;;;;;;0.05;0.05;;;20.20;99.90;;;;;;5012329;28;20049;-67
2023/06/02 10:25:16;;;;;;;0.20;0.20;;;20.00;99.90;;;;;;5013398;28;20129;-67
2023/06/02 10:27:44;;;;;;;1.55;1.00;;;19.80;99.90;;;;;;5002993;28;20042;-67
2023/06/02 10:30:10;;;;;;;0.00;0.00;;;19.90;99.90;;;;;;5004462;28;20099;-67
2023/06/02 10:32:45;;;;;;;0.00;0.00;;;20.00;99.90;;;;;;5013088;28;20426;-67
2023/06/02 10:35:11;;;;;;;0.55;0.52;;;20.10;99.90;;;;;;5009891;28;20520;-67
2023/06/02 10:37:37;;;;;;;0.10;0.10;;;20.10;99.90;;;;;;4997964;28;20046;-67
2023/06/02 10:40:03;;;;;;;0.00;0.00;;;20.20;99.90;;;;;;4998823;28;20050;-67
2023/06/02 10:42:32;;;;;;;0.00;0.00;;;20.30;99.90;;;;;;5008370;28;20041;-67
2023/06/02 10:45:16;;;;;;;0.85;0.40;;;20.40;99.90;;;;;;5012353;28;20050;-67
2023/06/02 10:47:42;;;;;;;0.13;0.13;;;20.50;99.90;;;;;;5006489;28;20121;-67
2023/06/02 10:50:14;;;;;;;0.00;0.00;;;20.40;99.90;;;;;;5002093;28;20157;-67
2023/06/02 10:53:03;;;;;;;0.00;0.00;;;20.40;99.90;;;;;;5002568;28;20419;-67
2023/06/02 10:55:33;;;;;;;0.00;0.00;;;20.70;99.90;;;;;;5011359;28;20053;-65
2023/06/02 10:58:03;;;;;;;0.00;0.00;;;20.70;99.90;;;;;;5001882;28;20116;-67
2023/06/02 11:00:43;;;;;;;0.00;0.00;;;20.80;99.90;;;;;;5010795;28;20037;-67
2023/06/02 11:03:17;;;;;;;0.00;0.00;;;20.90;99.90;;;;;;5027904;28;20059;-67
2023/06/02 11:05:49;;;;;;;0.08;0.08;;;20.90;99.90;;;;;;5011805;28;20402;-67
2023/06/02 11:08:17;;;;;;;0.00;0.00;;;21.00;99.90;;;;;;4998155;28;20129;-67
2023/06/02 11:10:51;;;;;;;0.00;0.00;;;21.20;99.90;;;;;;5011241;28;20050;-67
2023/06/02 11:13:21;;;;;;;0.73;0.47;;;21.30;99.90;;;;;;5011807;28;20613;-67
2023/06/02 11:15:59;;;;;;;0.00;0.00;;;21.30;99.90;;;;;;4996684;28;20042;-67
2023/06/02 11:18:33;;;;;;;0.00;0.00;;;21.20;99.90;;;;;;5004035;28;20046;-67
2023/06/02 11:21:01;;;;;;;0.17;0.17;;;21.40;99.90;;;;;;5033208;28;20038;-67
2023/06/02 11:23:27;;;;;;;0.52;0.52;;;21.40;99.20;;;;;;5027363;28;20154;-67
2023/06/02 11:26:15;;;;;;;0.00;0.00;;;21.50;99.90;;;;;;5011280;28;20535;-67
2023/06/02 11:28:40;;;;;;;0.00;0.00;;;21.60;99.90;;;;;;4996108;28;20054;-67
2023/06/02 11:31:14;;;;;;;0.17;0.10;;;21.70;99.90;;;;;;5010980;28;20050;-67
2023/06/02 11:33:42;;;;;;;0.35;0.35;;;21.80;99.40;;;;;;5011659;28;20080;-67
2023/06/02 11:36:13;;;;;;;0.00;0.00;;;22.10;99.70;;;;;;5009130;28;20067;-67
2023/06/02 11:38:39;;;;;;;0.00;0.00;;;21.80;99.70;;;;;;5005941;28;20180;-67
2023/06/02 11:41:16;;;;;;;0.00;0.00;;;22.10;99.50;;;;;;5007815;28;20053;-67
2023/06/02 11:43:44;;;;;;;0.00;0.00;;;22.30;98.80;;;;;;5005055;28;20046;-67
2023/06/02 11:46:12;;;;;;;0.10;0.10;;;22.40;98.70;;;;;;5007095;28;20054;-67
2023/06/02 11:48:38;;;;;;;0.00;0.00;;;22.40;98.80;;;;;;5012252;28;20038;-67
2023/06/02 11:51:09;;;;;;;0.00;0.00;;;22.50;98.00;;;;;;5002139;28;20092;-66
2023/06/02 11:53:38;;;;;;;0.00;0.00;;;22.10;95.50;;;;;;5002696;28;20049;-66
2023/06/02 11:56:06;;;;;;;0.00;0.00;;;22.30;94.50;;;;;;5007653;28;20042;-67
2023/06/02 11:58:40;;;;;;;0.10;0.10;;;22.60;96.70;;;;;;5001931;28;20046;-67
2023/06/02 12:01:12;;;;;;;0.00;0.00;;;22.80;97.10;;;;;;5003924;28;20548;-67
2023/06/02 12:03:38;;;;;;;0.00;0.00;;;22.90;97.70;;;;;;4996428;28;20050;-67
2023/06/02 12:06:13;;;;;;;0.80;0.43;;;23.00;99.00;;;;;;5008368;28;20049;-67
2023/06/02 12:08:39;;;;;;;0.00;0.00;;;22.90;98.70;;;;;;4998008;28;20082;-67
2023/06/02 12:11:15;;;;;;;0.00;0.00;;;22.90;99.90;;;;;;5011782;28;20073;-67
2023/06/02 12:13:41;;;;;;;0.43;0.43;;;23.20;98.90;;;;;;5009921;28;20165;-67
2023/06/02 12:16:24;;;;;;;0.00;0.00;;;23.00;99.10;;;;;;4992657;28;20046;-68
2023/06/02 12:18:50;;;;;;;0.10;0.10;;;23.30;99.00;;;;;;5006475;28;20050;-67
2023/06/02 12:21:27;;;;;;;0.00;0.00;;;23.20;99.10;;;;;;5003607;28;20548;-67
2023/06/02 12:23:54;;;;;;;0.00;0.00;;;23.50;99.90;;;;;;5007552;28;20050;-67
2023/06/02 12:26:21;;;;;;;0.17;0.17;;;23.40;99.90;;;;;;5002719;28;20069;-67
2023/06/02 12:28:48;;;;;;;0.00;0.00;;;22.60;99.90;;;;;;5010799;28;20097;-68
2023/06/02 12:31:17;;;;;;;0.00;0.00;;;22.70;99.90;;;;;;4996892;28;20042;-67
2023/06/02 12:33:44;;;;;;;0.80;0.38;;;23.00;99.90;;;;;;5007092;28;20124;-67
2023/06/02 12:36:11;;;;;;;0.00;0.00;;;23.10;99.90;;;;;;5010711;28;20549;-67
2023/06/02 12:38:38;;;;;;;0.00;0.00;;;23.40;99.90;;;;;;5013401;28;20089;-67
2023/06/02 12:41:11;;;;;;;0.00;0.00;;;23.30;99.90;;;;;;5018042;28;20104;-67
2023/06/02 12:43:40;;;;;;;0.00;0.00;;;23.20;99.90;;;;;;5013512;28;20050;-67
2023/06/02 12:46:07;;;;;;;0.00;0.00;;;22.90;99.90;;;;;;5013091;28;20061;-67
2023/06/02 12:48:33;;;;;;;0.32;0.32;;;23.30;99.90;;;;;;4998814;28;20046;-67
2023/06/02 12:50:59;;;;;;;0.10;0.10;;;23.60;99.90;;;;;;5004605;28;20456;-67